sensor_id;sensor_type;location;lat;lon;timestamp;P1;durP1;ratioP1;P2;durP2;ratioP2
15256;SDS011;7731;50.720;6.912;2023-09-18T00:01:32;8.00;;;6.03;;
15256;SDS011;7731;50.720;6.912;2023-09-18T00:04:02;8.38;;;6.22;;
15256;SDS011;7731;50.720;6.912;2023-09-18T00:06:33;9.80;;;6.00;;
15256;SDS011;7731;50.720;6.912;2023-09-18T00:09:05;7.22;;;6.53;;
15256;SDS011;7731;50.720;6.912;2023-09-18T00:11:40;7.90;;;5.82;;
15256;SDS011;7731;50.720;6.912;2023-09-18T00:14:10;9.63;;;6.07;;
15256;SDS011;7731;50.720;6.912;2023-09-18T00:16:43;7.20;;;5.75;;
15256;SDS011;7731;50.720;6.912;2023-09-18T00:19:24;8.50;;;5.90;;
15256;SDS011;7731;50.720;6.912;2023-09-18T00:21:55;9.43;;;5.85;;
15256;SDS011;7731;50.720;6.912;2023-09-18T00:24:27;8.82;;;6.07;;
15256;SDS011;7731;50.720;6.912;2023-09-18T00:26:58;9.65;;;6.30;;
15256;SDS011;7731;50.720;6.912;2023-09-18T00:29:28;7.35;;;5.68;;
15256;SDS011;7731;50.720;6.912;2023-09-18T00:32:01;11.95;;;5.70;;
15256;SDS011;7731;50.720;6.912;2023-09-18T00:34:34;8.00;;;5.70;;
15256;SDS011;7731;50.720;6.912;2023-09-18T00:37:04;11.90;;;5.78;;
15256;SDS011;7731;50.720;6.912;2023-09-18T00:39:37;7.50;;;5.65;;
15256;SDS011;7731;50.720;6.912;2023-09-18T00:42:07;10.98;;;5.43;;
15256;SDS011;7731;50.720;6.912;2023-09-18T00:44:42;8.88;;;6.05;;
15256;SDS011;7731;50.720;6.912;2023-09-18T00:47:15;8.68;;;5.68;;
15256;SDS011;7731;50.720;6.912;2023-09-18T00:49:46;8.80;;;6.30;;
15256;SDS011;7731;50.720;6.912;2023-09-18T00:52:19;9.00;;;5.80;;
15256;SDS011;7731;50.720;6.912;2023-09-18T00:54:54;9.25;;;5.72;;
15256;SDS011;7731;50.720;6.912;2023-09-18T00:57:26;8.02;;;5.82;;
15256;SDS011;7731;50.720;6.912;2023-09-18T00:59:58;10.95;;;6.00;;
15256;SDS011;7731;50.720;6.912;2023-09-18T01:02:32;11.73;;;6.50;;
15256;SDS011;7731;50.720;6.912;2023-09-18T01:05:03;12.73;;;6.10;;
15256;SDS011;7731;50.720;6.912;2023-09-18T01:07:34;6.35;;;5.63;;
15256;SDS011;7731;50.720;6.912;2023-09-18T01:10:06;7.00;;;5.85;;
15256;SDS011;7731;50.720;6.912;2023-09-18T01:12:44;8.00;;;6.30;;
15256;SDS011;7731;50.720;6.912;2023-09-18T01:15:21;8.85;;;6.10;;
15256;SDS011;7731;50.720;6.912;2023-09-18T01:18:02;10.65;;;6.38;;
15256;SDS011;7731;50.720;6.912;2023-09-18T01:20:32;9.70;;;6.55;;
15256;SDS011;7731;50.720;6.912;2023-09-18T01:23:05;8.32;;;6.40;;
15256;SDS011;7731;50.720;6.912;2023-09-18T01:25:37;7.45;;;5.97;;
15256;SDS011;7731;50.720;6.912;2023-09-18T01:28:08;7.93;;;5.82;;
15256;SDS011;7731;50.720;6.912;2023-09-18T01:30:38;8.60;;;5.68;;
15256;SDS011;7731;50.720;6.912;2023-09-18T01:33:08;9.43;;;6.03;;
15256;SDS011;7731;50.720;6.912;2023-09-18T01:35:41;8.20;;;5.65;;
15256;SDS011;7731;50.720;6.912;2023-09-18T01:38:18;7.70;;;5.50;;
15256;SDS011;7731;50.720;6.912;2023-09-18T01:40:50;6.78;;;5.55;;
15256;SDS011;7731;50.720;6.912;2023-09-18T01:43:24;5.93;;;5.32;;
15256;SDS011;7731;50.720;6.912;2023-09-18T01:45:54;7.30;;;5.55;;
15256;SDS011;7731;50.720;6.912;2023-09-18T01:48:24;9.98;;;5.30;;
15256;SDS011;7731;50.720;6.912;2023-09-18T01:50:55;9.65;;;5.70;;
15256;SDS011;7731;50.720;6.912;2023-09-18T01:53:28;8.48;;;5.80;;
15256;SDS011;7731;50.720;6.912;2023-09-18T01:55:58;10.63;;;5.40;;
15256;SDS011;7731;50.720;6.912;2023-09-18T01:58:28;9.52;;;5.90;;
15256;SDS011;7731;50.720;6.912;2023-09-18T02:01:00;8.63;;;6.15;;
15256;SDS011;7731;50.720;6.912;2023-09-18T02:03:31;7.85;;;5.70;;
15256;SDS011;7731;50.720;6.912;2023-09-18T02:06:21;7.55;;;5.68;;
15256;SDS011;7731;50.720;6.912;2023-09-18T02:08:54;8.02;;;5.53;;
15256;SDS011;7731;50.720;6.912;2023-09-18T02:11:25;10.13;;;6.57;;
15256;SDS011;7731;50.720;6.912;2023-09-18T02:13:56;10.05;;;5.70;;
15256;SDS011;7731;50.720;6.912;2023-09-18T02:16:33;7.40;;;4.50;;
15256;SDS011;7731;50.720;6.912;2023-09-18T02:19:07;8.45;;;5.03;;
15256;SDS011;7731;50.720;6.912;2023-09-18T02:21:39;7.45;;;5.22;;
15256;SDS011;7731;50.720;6.912;2023-09-18T02:24:14;8.50;;;4.93;;
15256;SDS011;7731;50.720;6.912;2023-09-18T02:26:45;10.65;;;5.50;;
15256;SDS011;7731;50.720;6.912;2023-09-18T02:29:16;8.48;;;4.60;;
15256;SDS011;7731;50.720;6.912;2023-09-18T02:31:46;8.75;;;5.88;;
15256;SDS011;7731;50.720;6.912;2023-09-18T02:34:16;7.95;;;5.25;;
15256;SDS011;7731;50.720;6.912;2023-09-18T02:36:49;11.18;;;5.15;;
15256;SDS011;7731;50.720;6.912;2023-09-18T02:39:23;7.47;;;4.88;;
15256;SDS011;7731;50.720;6.912;2023-09-18T02:41:53;7.63;;;4.97;;
15256;SDS011;7731;50.720;6.912;2023-09-18T02:44:23;6.00;;;4.25;;
15256;SDS011;7731;50.720;6.912;2023-09-18T02:46:54;7.95;;;4.80;;
15256;SDS011;7731;50.720;6.912;2023-09-18T02:49:24;8.82;;;5.03;;
15256;SDS011;7731;50.720;6.912;2023-09-18T02:51:56;8.90;;;5.05;;
15256;SDS011;7731;50.720;6.912;2023-09-18T02:54:29;9.07;;;5.68;;
15256;SDS011;7731;50.720;6.912;2023-09-18T02:56:59;10.30;;;5.97;;
15256;SDS011;7731;50.720;6.912;2023-09-18T02:59:29;10.07;;;5.63;;
15256;SDS011;7731;50.720;6.912;2023-09-18T03:02:00;8.52;;;5.60;;
15256;SDS011;7731;50.720;6.912;2023-09-18T03:04:31;9.65;;;5.75;;
15256;SDS011;7731;50.720;6.912;2023-09-18T03:07:01;10.95;;;5.90;;
15256;SDS011;7731;50.720;6.912;2023-09-18T03:09:34;8.73;;;5.60;;
15256;SDS011;7731;50.720;6.912;2023-09-18T03:12:05;10.98;;;6.28;;
15256;SDS011;7731;50.720;6.912;2023-09-18T03:14:39;9.52;;;5.25;;
15256;SDS011;7731;50.720;6.912;2023-09-18T03:17:10;9.05;;;5.30;;
15256;SDS011;7731;50.720;6.912;2023-09-18T03:19:40;8.75;;;5.50;;
15256;SDS011;7731;50.720;6.912;2023-09-18T03:22:10;9.25;;;5.38;;
15256;SDS011;7731;50.720;6.912;2023-09-18T03:24:43;11.30;;;5.22;;
15256;SDS011;7731;50.720;6.912;2023-09-18T03:27:16;11.10;;;5.90;;
15256;SDS011;7731;50.720;6.912;2023-09-18T03:29:46;9.55;;;5.47;;
15256;SDS011;7731;50.720;6.912;2023-09-18T03:32:16;13.38;;;5.75;;
15256;SDS011;7731;50.720;6.912;2023-09-18T03:34:47;8.45;;;5.47;;
15256;SDS011;7731;50.720;6.912;2023-09-18T03:37:20;12.80;;;5.80;;
15256;SDS011;7731;50.720;6.912;2023-09-18T03:39:53;9.15;;;5.15;;
15256;SDS011;7731;50.720;6.912;2023-09-18T03:42:24;9.15;;;5.28;;
15256;SDS011;7731;50.720;6.912;2023-09-18T03:44:56;7.65;;;4.72;;
15256;SDS011;7731;50.720;6.912;2023-09-18T03:47:26;12.98;;;5.30;;
15256;SDS011;7731;50.720;6.912;2023-09-18T03:49:57;8.60;;;5.55;;
15256;SDS011;7731;50.720;6.912;2023-09-18T03:52:27;8.35;;;5.32;;
15256;SDS011;7731;50.720;6.912;2023-09-18T03:55:00;9.48;;;5.45;;
15256;SDS011;7731;50.720;6.912;2023-09-18T03:57:33;8.77;;;5.30;;
15256;SDS011;7731;50.720;6.912;2023-09-18T04:00:04;8.90;;;5.38;;
15256;SDS011;7731;50.720;6.912;2023-09-18T04:02:36;9.85;;;5.68;;
15256;SDS011;7731;50.720;6.912;2023-09-18T04:05:06;9.57;;;5.60;;
15256;SDS011;7731;50.720;6.912;2023-09-18T04:07:37;10.00;;;4.93;;
15256;SDS011;7731;50.720;6.912;2023-09-18T04:10:16;8.25;;;4.85;;
15256;SDS011;7731;50.720;6.912;2023-09-18T04:12:50;9.07;;;5.50;;
15256;SDS011;7731;50.720;6.912;2023-09-18T04:15:21;9.43;;;5.18;;
15256;SDS011;7731;50.720;6.912;2023-09-18T04:17:52;12.02;;;5.60;;
15256;SDS011;7731;50.720;6.912;2023-09-18T04:20:22;8.88;;;4.75;;
15256;SDS011;7731;50.720;6.912;2023-09-18T04:25:54;9.32;;;4.78;;
15256;SDS011;7731;50.720;6.912;2023-09-18T04:28:24;9.40;;;4.88;;
15256;SDS011;7731;50.720;6.912;2023-09-18T04:30:55;9.30;;;4.97;;
15256;SDS011;7731;50.720;6.912;2023-09-18T04:33:26;10.85;;;5.05;;
15256;SDS011;7731;50.720;6.912;2023-09-18T04:36:12;7.75;;;4.45;;
15256;SDS011;7731;50.720;6.912;2023-09-18T04:38:45;6.97;;;4.68;;
15256;SDS011;7731;50.720;6.912;2023-09-18T04:41:22;11.70;;;4.82;;
15256;SDS011;7731;50.720;6.912;2023-09-18T04:43:53;8.73;;;4.97;;
15256;SDS011;7731;50.720;6.912;2023-09-18T04:46:23;10.82;;;4.20;;
15256;SDS011;7731;50.720;6.912;2023-09-18T04:48:54;12.02;;;4.72;;
15256;SDS011;7731;50.720;6.912;2023-09-18T04:51:24;9.93;;;4.72;;
15256;SDS011;7731;50.720;6.912;2023-09-18T04:53:54;8.10;;;4.70;;
15256;SDS011;7731;50.720;6.912;2023-09-18T04:56:27;9.32;;;4.45;;
15256;SDS011;7731;50.720;6.912;2023-09-18T04:58:57;7.68;;;4.65;;
15256;SDS011;7731;50.720;6.912;2023-09-18T05:01:28;9.90;;;4.93;;
15256;SDS011;7731;50.720;6.912;2023-09-18T05:03:59;7.63;;;4.53;;
15256;SDS011;7731;50.720;6.912;2023-09-18T05:06:29;7.93;;;4.07;;
15256;SDS011;7731;50.720;6.912;2023-09-18T05:08:59;9.18;;;4.78;;
15256;SDS011;7731;50.720;6.912;2023-09-18T05:11:32;6.63;;;3.60;;
15256;SDS011;7731;50.720;6.912;2023-09-18T05:14:03;7.38;;;3.60;;
15256;SDS011;7731;50.720;6.912;2023-09-18T05:16:33;7.80;;;3.55;;
15256;SDS011;7731;50.720;6.912;2023-09-18T05:19:04;6.10;;;3.58;;
15256;SDS011;7731;50.720;6.912;2023-09-18T05:21:34;5.10;;;3.45;;
15256;SDS011;7731;50.720;6.912;2023-09-18T05:24:05;6.47;;;3.40;;
15256;SDS011;7731;50.720;6.912;2023-09-18T05:26:38;8.30;;;3.20;;
15256;SDS011;7731;50.720;6.912;2023-09-18T05:29:08;6.68;;;3.70;;
15256;SDS011;7731;50.720;6.912;2023-09-18T05:31:39;6.40;;;3.17;;
15256;SDS011;7731;50.720;6.912;2023-09-18T05:34:09;4.85;;;3.20;;
15256;SDS011;7731;50.720;6.912;2023-09-18T05:36:39;5.28;;;2.97;;
15256;SDS011;7731;50.720;6.912;2023-09-18T05:39:10;5.68;;;3.20;;
15256;SDS011;7731;50.720;6.912;2023-09-18T05:41:43;6.30;;;3.05;;
15256;SDS011;7731;50.720;6.912;2023-09-18T05:44:13;5.65;;;3.47;;
15256;SDS011;7731;50.720;6.912;2023-09-18T05:46:44;5.25;;;3.10;;
15256;SDS011;7731;50.720;6.912;2023-09-18T05:49:14;7.05;;;3.28;;
15256;SDS011;7731;50.720;6.912;2023-09-18T05:51:44;6.50;;;3.10;;
15256;SDS011;7731;50.720;6.912;2023-09-18T05:54:15;3.95;;;2.55;;
15256;SDS011;7731;50.720;6.912;2023-09-18T05:56:49;5.40;;;2.70;;
15256;SDS011;7731;50.720;6.912;2023-09-18T05:59:19;6.68;;;2.60;;
15256;SDS011;7731;50.720;6.912;2023-09-18T06:01:49;4.57;;;2.70;;
15256;SDS011;7731;50.720;6.912;2023-09-18T06:04:24;5.72;;;2.65;;
15256;SDS011;7731;50.720;6.912;2023-09-18T06:06:57;7.45;;;2.80;;
15256;SDS011;7731;50.720;6.912;2023-09-18T06:09:27;4.82;;;2.40;;
15256;SDS011;7731;50.720;6.912;2023-09-18T06:12:00;5.65;;;2.63;;
15256;SDS011;7731;50.720;6.912;2023-09-18T06:14:31;4.97;;;2.65;;
15256;SDS011;7731;50.720;6.912;2023-09-18T06:17:05;6.53;;;2.38;;
15256;SDS011;7731;50.720;6.912;2023-09-18T06:19:36;5.25;;;2.60;;
15256;SDS011;7731;50.720;6.912;2023-09-18T06:22:07;4.03;;;2.25;;
15256;SDS011;7731;50.720;6.912;2023-09-18T06:24:40;4.53;;;2.53;;
15256;SDS011;7731;50.720;6.912;2023-09-18T06:27:14;2.83;;;2.22;;
15256;SDS011;7731;50.720;6.912;2023-09-18T06:29:45;5.65;;;2.47;;
15256;SDS011;7731;50.720;6.912;2023-09-18T06:32:15;4.00;;;1.90;;
15256;SDS011;7731;50.720;6.912;2023-09-18T06:34:46;5.22;;;1.98;;
15256;SDS011;7731;50.720;6.912;2023-09-18T06:37:16;4.18;;;1.95;;
15256;SDS011;7731;50.720;6.912;2023-09-18T06:39:49;4.80;;;2.30;;
15256;SDS011;7731;50.720;6.912;2023-09-18T06:42:22;4.80;;;2.40;;
15256;SDS011;7731;50.720;6.912;2023-09-18T06:44:52;4.15;;;2.08;;
15256;SDS011;7731;50.720;6.912;2023-09-18T06:47:22;5.35;;;1.90;;
15256;SDS011;7731;50.720;6.912;2023-09-18T06:49:53;5.40;;;2.10;;
15256;SDS011;7731;50.720;6.912;2023-09-18T06:52:24;3.20;;;2.10;;
15256;SDS011;7731;50.720;6.912;2023-09-18T06:54:54;5.07;;;2.00;;
15256;SDS011;7731;50.720;6.912;2023-09-18T06:57:27;3.15;;;1.98;;
15256;SDS011;7731;50.720;6.912;2023-09-18T06:59:57;4.50;;;1.90;;
15256;SDS011;7731;50.720;6.912;2023-09-18T07:02:28;2.63;;;1.70;;
15256;SDS011;7731;50.720;6.912;2023-09-18T07:04:58;3.35;;;1.63;;
15256;SDS011;7731;50.720;6.912;2023-09-18T07:07:29;3.70;;;1.90;;
15256;SDS011;7731;50.720;6.912;2023-09-18T07:09:59;6.00;;;1.75;;
15256;SDS011;7731;50.720;6.912;2023-09-18T07:12:34;3.63;;;1.90;;
15256;SDS011;7731;50.720;6.912;2023-09-18T07:15:05;3.92;;;2.13;;
15256;SDS011;7731;50.720;6.912;2023-09-18T07:17:37;4.20;;;1.92;;
15256;SDS011;7731;50.720;6.912;2023-09-18T07:20:08;2.78;;;1.60;;
15256;SDS011;7731;50.720;6.912;2023-09-18T07:22:46;4.50;;;1.90;;
15256;SDS011;7731;50.720;6.912;2023-09-18T07:25:18;3.03;;;1.73;;
15256;SDS011;7731;50.720;6.912;2023-09-18T07:27:51;4.15;;;2.03;;
15256;SDS011;7731;50.720;6.912;2023-09-18T07:30:21;4.15;;;1.83;;
15256;SDS011;7731;50.720;6.912;2023-09-18T07:32:54;5.05;;;1.77;;
15256;SDS011;7731;50.720;6.912;2023-09-18T07:35:25;3.22;;;1.73;;
15256;SDS011;7731;50.720;6.912;2023-09-18T07:37:56;2.88;;;1.75;;
15256;SDS011;7731;50.720;6.912;2023-09-18T07:40:26;2.65;;;1.73;;
15256;SDS011;7731;50.720;6.912;2023-09-18T07:42:59;4.45;;;1.60;;
15256;SDS011;7731;50.720;6.912;2023-09-18T07:45:30;2.95;;;1.50;;
15256;SDS011;7731;50.720;6.912;2023-09-18T07:48:00;5.45;;;1.88;;
15256;SDS011;7731;50.720;6.912;2023-09-18T07:50:30;4.40;;;1.80;;
15256;SDS011;7731;50.720;6.912;2023-09-18T07:53:01;3.83;;;1.80;;
15256;SDS011;7731;50.720;6.912;2023-09-18T07:55:32;3.30;;;1.95;;
15256;SDS011;7731;50.720;6.912;2023-09-18T07:58:06;4.18;;;2.47;;
15256;SDS011;7731;50.720;6.912;2023-09-18T08:00:38;5.57;;;2.30;;
15256;SDS011;7731;50.720;6.912;2023-09-18T08:03:09;2.78;;;1.88;;
15256;SDS011;7731;50.720;6.912;2023-09-18T08:05:39;3.10;;;1.60;;
15256;SDS011;7731;50.720;6.912;2023-09-18T08:08:10;3.13;;;1.70;;
15256;SDS011;7731;50.720;6.912;2023-09-18T08:10:40;2.28;;;1.58;;
15256;SDS011;7731;50.720;6.912;2023-09-18T08:13:13;4.90;;;1.80;;
15256;SDS011;7731;50.720;6.912;2023-09-18T08:15:44;3.33;;;1.95;;
15256;SDS011;7731;50.720;6.912;2023-09-18T08:18:15;4.57;;;1.70;;
15256;SDS011;7731;50.720;6.912;2023-09-18T08:20:46;3.10;;;1.58;;
15256;SDS011;7731;50.720;6.912;2023-09-18T08:23:17;2.45;;;1.80;;
15256;SDS011;7731;50.720;6.912;2023-09-18T08:25:47;5.82;;;1.67;;
15256;SDS011;7731;50.720;6.912;2023-09-18T08:28:20;4.30;;;1.92;;
15256;SDS011;7731;50.720;6.912;2023-09-18T08:30:51;3.63;;;1.42;;
15256;SDS011;7731;50.720;6.912;2023-09-18T08:33:21;2.30;;;1.55;;
15256;SDS011;7731;50.720;6.912;2023-09-18T08:35:54;2.65;;;1.85;;
15256;SDS011;7731;50.720;6.912;2023-09-18T08:38:27;2.22;;;1.58;;
15256;SDS011;7731;50.720;6.912;2023-09-18T08:40:57;4.22;;;1.75;;
15256;SDS011;7731;50.720;6.912;2023-09-18T08:43:32;2.03;;;1.50;;
15256;SDS011;7731;50.720;6.912;2023-09-18T08:46:04;3.13;;;1.83;;
15256;SDS011;7731;50.720;6.912;2023-09-18T08:48:34;3.28;;;1.80;;
15256;SDS011;7731;50.720;6.912;2023-09-18T08:51:06;2.63;;;1.65;;
15256;SDS011;7731;50.720;6.912;2023-09-18T08:53:39;2.00;;;1.40;;
15256;SDS011;7731;50.720;6.912;2023-09-18T08:56:10;2.28;;;1.63;;
15256;SDS011;7731;50.720;6.912;2023-09-18T08:58:45;3.00;;;1.50;;
15256;SDS011;7731;50.720;6.912;2023-09-18T09:01:18;2.35;;;1.58;;
15256;SDS011;7731;50.720;6.912;2023-09-18T09:03:48;6.05;;;1.73;;
15256;SDS011;7731;50.720;6.912;2023-09-18T09:06:19;2.25;;;1.65;;
15256;SDS011;7731;50.720;6.912;2023-09-18T09:08:49;1.83;;;1.40;;
15256;SDS011;7731;50.720;6.912;2023-09-18T09:11:21;4.80;;;1.80;;
15256;SDS011;7731;50.720;6.912;2023-09-18T09:14:08;3.22;;;1.70;;
15256;SDS011;7731;50.720;6.912;2023-09-18T09:16:46;3.75;;;1.40;;
15256;SDS011;7731;50.720;6.912;2023-09-18T09:19:18;4.30;;;1.80;;
15256;SDS011;7731;50.720;6.912;2023-09-18T09:21:59;2.67;;;1.95;;
15256;SDS011;7731;50.720;6.912;2023-09-18T09:24:38;3.75;;;1.75;;
15256;SDS011;7731;50.720;6.912;2023-09-18T09:27:10;4.63;;;2.03;;
15256;SDS011;7731;50.720;6.912;2023-09-18T09:29:55;3.45;;;1.58;;
15256;SDS011;7731;50.720;6.912;2023-09-18T09:32:35;4.57;;;1.80;;
15256;SDS011;7731;50.720;6.912;2023-09-18T09:35:07;2.50;;;1.63;;
15256;SDS011;7731;50.720;6.912;2023-09-18T09:37:38;2.38;;;1.77;;
15256;SDS011;7731;50.720;6.912;2023-09-18T09:40:08;3.28;;;1.55;;
15256;SDS011;7731;50.720;6.912;2023-09-18T09:42:43;3.00;;;1.42;;
15256;SDS011;7731;50.720;6.912;2023-09-18T09:45:18;4.15;;;1.83;;
15256;SDS011;7731;50.720;6.912;2023-09-18T09:47:49;2.67;;;1.50;;
15256;SDS011;7731;50.720;6.912;2023-09-18T09:50:27;2.35;;;1.67;;
15256;SDS011;7731;50.720;6.912;2023-09-18T09:52:58;4.00;;;1.90;;
15256;SDS011;7731;50.720;6.912;2023-09-18T09:55:30;2.53;;;1.33;;
15256;SDS011;7731;50.720;6.912;2023-09-18T09:58:03;2.92;;;1.50;;
15256;SDS011;7731;50.720;6.912;2023-09-18T10:00:41;4.57;;;1.77;;
15256;SDS011;7731;50.720;6.912;2023-09-18T10:03:18;3.03;;;1.73;;
15256;SDS011;7731;50.720;6.912;2023-09-18T10:05:50;3.17;;;1.27;;
15256;SDS011;7731;50.720;6.912;2023-09-18T10:08:23;4.65;;;1.17;;
15256;SDS011;7731;50.720;6.912;2023-09-18T10:11:01;3.58;;;1.05;;
15256;SDS011;7731;50.720;6.912;2023-09-18T10:13:45;2.05;;;1.10;;
15256;SDS011;7731;50.720;6.912;2023-09-18T10:16:24;4.30;;;1.30;;
15256;SDS011;7731;50.720;6.912;2023-09-18T10:19:02;2.47;;;1.10;;
15256;SDS011;7731;50.720;6.912;2023-09-18T10:21:46;1.73;;;1.13;;
15256;SDS011;7731;50.720;6.912;2023-09-18T10:24:37;3.17;;;1.20;;
15256;SDS011;7731;50.720;6.912;2023-09-18T10:27:11;1.50;;;1.08;;
15256;SDS011;7731;50.720;6.912;2023-09-18T10:29:47;1.98;;;1.17;;
15256;SDS011;7731;50.720;6.912;2023-09-18T10:32:24;2.28;;;1.10;;
15256;SDS011;7731;50.720;6.912;2023-09-18T10:34:57;1.60;;;0.90;;
15256;SDS011;7731;50.720;6.912;2023-09-18T10:37:29;1.95;;;1.10;;
15256;SDS011;7731;50.720;6.912;2023-09-18T10:40:06;2.08;;;1.30;;
15256;SDS011;7731;50.720;6.912;2023-09-18T10:42:41;2.75;;;1.40;;
15256;SDS011;7731;50.720;6.912;2023-09-18T10:45:12;2.35;;;1.23;;
15256;SDS011;7731;50.720;6.912;2023-09-18T10:47:46;2.35;;;1.20;;
15256;SDS011;7731;50.720;6.912;2023-09-18T10:50:23;3.90;;;1.40;;
15256;SDS011;7731;50.720;6.912;2023-09-18T10:52:54;2.45;;;1.42;;
15256;SDS011;7731;50.720;6.912;2023-09-18T10:55:27;1.95;;;1.10;;
15256;SDS011;7731;50.720;6.912;2023-09-18T10:58:00;1.70;;;0.93;;
15256;SDS011;7731;50.720;6.912;2023-09-18T11:00:31;2.65;;;1.20;;
15256;SDS011;7731;50.720;6.912;2023-09-18T11:03:12;2.45;;;1.17;;
15256;SDS011;7731;50.720;6.912;2023-09-18T11:05:45;2.33;;;1.30;;
15256;SDS011;7731;50.720;6.912;2023-09-18T11:08:25;2.30;;;1.20;;
15256;SDS011;7731;50.720;6.912;2023-09-18T11:11:02;1.88;;;1.15;;
15256;SDS011;7731;50.720;6.912;2023-09-18T11:13:42;2.75;;;1.30;;
15256;SDS011;7731;50.720;6.912;2023-09-18T11:16:18;4.63;;;1.60;;
15256;SDS011;7731;50.720;6.912;2023-09-18T11:19:16;3.28;;;1.30;;
15256;SDS011;7731;50.720;6.912;2023-09-18T11:21:47;1.92;;;1.30;;
15256;SDS011;7731;50.720;6.912;2023-09-18T11:24:39;2.13;;;1.20;;
15256;SDS011;7731;50.720;6.912;2023-09-18T11:27:12;2.78;;;1.33;;
15256;SDS011;7731;50.720;6.912;2023-09-18T11:29:42;1.50;;;1.20;;
15256;SDS011;7731;50.720;6.912;2023-09-18T11:32:16;2.55;;;1.25;;
15256;SDS011;7731;50.720;6.912;2023-09-18T11:35:10;3.00;;;1.30;;
15256;SDS011;7731;50.720;6.912;2023-09-18T11:37:45;2.42;;;1.10;;
15256;SDS011;7731;50.720;6.912;2023-09-18T11:40:28;1.65;;;1.40;;
15256;SDS011;7731;50.720;6.912;2023-09-18T11:45:53;3.42;;;1.20;;
15256;SDS011;7731;50.720;6.912;2023-09-18T11:48:26;1.83;;;1.15;;
15256;SDS011;7731;50.720;6.912;2023-09-18T11:51:03;2.78;;;1.52;;
15256;SDS011;7731;50.720;6.912;2023-09-18T11:53:38;2.80;;;1.40;;
15256;SDS011;7731;50.720;6.912;2023-09-18T11:56:10;1.42;;;1.17;;
15256;SDS011;7731;50.720;6.912;2023-09-18T11:58:44;1.63;;;1.20;;
15256;SDS011;7731;50.720;6.912;2023-09-18T12:01:17;2.80;;;1.48;;
15256;SDS011;7731;50.720;6.912;2023-09-18T12:03:53;3.45;;;1.45;;
15256;SDS011;7731;50.720;6.912;2023-09-18T12:06:26;2.17;;;1.60;;
15256;SDS011;7731;50.720;6.912;2023-09-18T12:08:58;1.85;;;1.40;;
15256;SDS011;7731;50.720;6.912;2023-09-18T12:11:28;2.13;;;1.40;;
15256;SDS011;7731;50.720;6.912;2023-09-18T12:14:01;2.20;;;1.40;;
15256;SDS011;7731;50.720;6.912;2023-09-18T12:16:37;2.42;;;1.58;;
15256;SDS011;7731;50.720;6.912;2023-09-18T12:19:08;2.97;;;1.70;;
15256;SDS011;7731;50.720;6.912;2023-09-18T12:21:48;2.53;;;1.58;;
15256;SDS011;7731;50.720;6.912;2023-09-18T12:24:20;4.10;;;1.55;;
15256;SDS011;7731;50.720;6.912;2023-09-18T12:26:51;1.80;;;1.38;;
15256;SDS011;7731;50.720;6.912;2023-09-18T12:29:23;2.47;;;1.48;;
15256;SDS011;7731;50.720;6.912;2023-09-18T12:31:54;3.10;;;1.65;;
15256;SDS011;7731;50.720;6.912;2023-09-18T12:34:28;3.22;;;1.50;;
15256;SDS011;7731;50.720;6.912;2023-09-18T12:37:01;1.48;;;1.30;;
15256;SDS011;7731;50.720;6.912;2023-09-18T12:39:33;3.67;;;1.40;;
15256;SDS011;7731;50.720;6.912;2023-09-18T12:42:04;2.17;;;1.42;;
15256;SDS011;7731;50.720;6.912;2023-09-18T12:44:35;1.75;;;1.55;;
15256;SDS011;7731;50.720;6.912;2023-09-18T12:47:08;1.85;;;1.30;;
15256;SDS011;7731;50.720;6.912;2023-09-18T12:49:39;3.00;;;1.55;;
15256;SDS011;7731;50.720;6.912;2023-09-18T12:52:12;3.13;;;1.40;;
15256;SDS011;7731;50.720;6.912;2023-09-18T12:54:43;2.60;;;1.20;;
15256;SDS011;7731;50.720;6.912;2023-09-18T12:57:21;1.75;;;1.50;;
15256;SDS011;7731;50.720;6.912;2023-09-18T12:59:51;3.83;;;1.60;;
15256;SDS011;7731;50.720;6.912;2023-09-18T13:02:22;1.73;;;1.38;;
15256;SDS011;7731;50.720;6.912;2023-09-18T13:04:56;2.20;;;1.30;;
15256;SDS011;7731;50.720;6.912;2023-09-18T13:07:29;1.40;;;1.27;;
15256;SDS011;7731;50.720;6.912;2023-09-18T13:10:04;2.63;;;1.60;;
15256;SDS011;7731;50.720;6.912;2023-09-18T13:12:40;2.33;;;1.55;;
15256;SDS011;7731;50.720;6.912;2023-09-18T13:15:26;1.67;;;1.48;;
15256;SDS011;7731;50.720;6.912;2023-09-18T13:17:59;2.08;;;1.42;;
15256;SDS011;7731;50.720;6.912;2023-09-18T13:20:38;2.25;;;1.30;;
15256;SDS011;7731;50.720;6.912;2023-09-18T13:23:12;1.77;;;1.58;;
15256;SDS011;7731;50.720;6.912;2023-09-18T13:25:47;3.63;;;1.73;;
15256;SDS011;7731;50.720;6.912;2023-09-18T13:28:18;1.77;;;1.30;;
15256;SDS011;7731;50.720;6.912;2023-09-18T13:30:48;2.28;;;1.40;;
15256;SDS011;7731;50.720;6.912;2023-09-18T13:33:20;2.65;;;1.70;;
15256;SDS011;7731;50.720;6.912;2023-09-18T13:35:53;2.72;;;1.52;;
15256;SDS011;7731;50.720;6.912;2023-09-18T13:38:26;2.65;;;1.52;;
15256;SDS011;7731;50.720;6.912;2023-09-18T13:40:56;2.63;;;1.50;;
15256;SDS011;7731;50.720;6.912;2023-09-18T13:43:27;1.77;;;1.60;;
15256;SDS011;7731;50.720;6.912;2023-09-18T13:46:01;2.58;;;1.55;;
15256;SDS011;7731;50.720;6.912;2023-09-18T13:48:33;2.50;;;1.70;;
15256;SDS011;7731;50.720;6.912;2023-09-18T13:51:05;4.32;;;1.67;;
15256;SDS011;7731;50.720;6.912;2023-09-18T13:53:38;2.95;;;1.50;;
15256;SDS011;7731;50.720;6.912;2023-09-18T13:56:10;3.95;;;1.65;;
15256;SDS011;7731;50.720;6.912;2023-09-18T13:58:40;2.45;;;1.40;;
15256;SDS011;7731;50.720;6.912;2023-09-18T14:01:10;3.03;;;1.55;;
15256;SDS011;7731;50.720;6.912;2023-09-18T14:03:42;1.75;;;1.50;;
15256;SDS011;7731;50.720;6.912;2023-09-18T14:06:13;2.58;;;1.40;;
15256;SDS011;7731;50.720;6.912;2023-09-18T14:08:46;2.33;;;1.40;;
15256;SDS011;7731;50.720;6.912;2023-09-18T14:11:16;2.63;;;1.98;;
15256;SDS011;7731;50.720;6.912;2023-09-18T14:13:48;2.13;;;1.50;;
15256;SDS011;7731;50.720;6.912;2023-09-18T14:16:18;2.75;;;1.65;;
15256;SDS011;7731;50.720;6.912;2023-09-18T14:18:49;3.38;;;1.70;;
15256;SDS011;7731;50.720;6.912;2023-09-18T14:21:20;4.72;;;1.63;;
15256;SDS011;7731;50.720;6.912;2023-09-18T14:23:54;2.28;;;1.60;;
15256;SDS011;7731;50.720;6.912;2023-09-18T14:26:27;8.23;;;2.10;;
15256;SDS011;7731;50.720;6.912;2023-09-18T14:28:57;2.90;;;1.50;;
15256;SDS011;7731;50.720;6.912;2023-09-18T14:31:28;1.73;;;1.60;;
15256;SDS011;7731;50.720;6.912;2023-09-18T14:33:58;2.50;;;1.40;;
15256;SDS011;7731;50.720;6.912;2023-09-18T14:36:29;3.40;;;1.60;;
15256;SDS011;7731;50.720;6.912;2023-09-18T14:39:04;2.95;;;1.60;;
15256;SDS011;7731;50.720;6.912;2023-09-18T14:41:35;1.65;;;1.50;;
15256;SDS011;7731;50.720;6.912;2023-09-18T14:44:06;3.78;;;1.77;;
15256;SDS011;7731;50.720;6.912;2023-09-18T14:46:38;2.92;;;1.60;;
15256;SDS011;7731;50.720;6.912;2023-09-18T14:49:11;2.45;;;1.70;;
15256;SDS011;7731;50.720;6.912;2023-09-18T14:51:42;6.45;;;1.70;;
15256;SDS011;7731;50.720;6.912;2023-09-18T14:54:16;2.20;;;1.70;;
15256;SDS011;7731;50.720;6.912;2023-09-18T14:56:46;3.10;;;1.35;;
15256;SDS011;7731;50.720;6.912;2023-09-18T14:59:17;3.83;;;1.60;;
15256;SDS011;7731;50.720;6.912;2023-09-18T15:02:07;2.92;;;1.70;;
15256;SDS011;7731;50.720;6.912;2023-09-18T15:04:39;5.68;;;1.98;;
15256;SDS011;7731;50.720;6.912;2023-09-18T15:07:09;2.58;;;1.80;;
15256;SDS011;7731;50.720;6.912;2023-09-18T15:09:42;3.75;;;1.52;;
15256;SDS011;7731;50.720;6.912;2023-09-18T15:12:13;2.28;;;1.40;;
15256;SDS011;7731;50.720;6.912;2023-09-18T15:14:43;3.10;;;1.90;;
15256;SDS011;7731;50.720;6.912;2023-09-18T15:17:13;2.35;;;1.60;;
15256;SDS011;7731;50.720;6.912;2023-09-18T15:19:47;1.90;;;1.65;;
15256;SDS011;7731;50.720;6.912;2023-09-18T15:22:21;2.88;;;1.67;;
15256;SDS011;7731;50.720;6.912;2023-09-18T15:24:56;2.08;;;1.58;;
15256;SDS011;7731;50.720;6.912;2023-09-18T15:27:28;2.25;;;1.73;;
15256;SDS011;7731;50.720;6.912;2023-09-18T15:29:58;1.52;;;1.42;;
15256;SDS011;7731;50.720;6.912;2023-09-18T15:32:31;2.08;;;1.42;;
15256;SDS011;7731;50.720;6.912;2023-09-18T15:35:22;4.25;;;2.00;;
15256;SDS011;7731;50.720;6.912;2023-09-18T15:37:54;5.97;;;1.77;;
15256;SDS011;7731;50.720;6.912;2023-09-18T15:40:27;3.22;;;1.63;;